Time;durP1;ratioP1;P1;durP2;ratioP2;P2;SDS_P1;SDS_P2;PMS_P1;PMS_P2;Temp;Humidity;BMP_temperature;BMP_pressure;BME280_temperature;BME280_humidity;BME280_pressure;Samples;Min_cycle;Max_cycle;Signal;HPM_P1;HPM_P2
2022/04/24 00:00:38;;;;;;;27.43;24.93;;;11.70;99.90;;;;;;5051906;28;20488;-83
2022/04/24 00:03:04;;;;;;;27.98;25.20;;;11.90;99.90;;;;;;5052206;28;20961;-83
2022/04/24 00:05:30;;;;;;;26.93;24.43;;;11.70;99.90;;;;;;5051818;28;20760;-83
2022/04/24 00:07:55;;;;;;;26.58;24.10;;;11.70;99.90;;;;;;5051888;28;20393;-83
2022/04/24 00:10:21;;;;;;;25.70;23.40;;;11.90;99.90;;;;;;5052030;28;20469;-82
2022/04/24 00:12:48;;;;;;;27.13;24.50;;;12.00;99.90;;;;;;5051769;28;20385;-83
2022/04/24 00:15:14;;;;;;;27.42;24.85;;;12.00;99.90;;;;;;5051925;28;20417;-82
2022/04/24 00:17:39;;;;;;;26.10;23.70;;;11.90;99.90;;;;;;5051920;28;20428;-83
2022/04/24 00:20:05;;;;;;;27.37;24.87;;;12.10;99.90;;;;;;5052593;28;20389;-83
2022/04/24 00:22:31;;;;;;;27.17;24.52;;;12.10;99.90;;;;;;5055497;28;20401;-82
2022/04/24 00:24:57;;;;;;;28.10;25.50;;;12.00;99.90;;;;;;5055775;28;20396;-83
2022/04/24 00:27:22;;;;;;;26.73;24.20;;;12.00;99.90;;;;;;5054008;28;20735;-83
2022/04/24 00:29:48;;;;;;;28.80;26.07;;;11.90;99.90;;;;;;5055698;28;20434;-83
2022/04/24 00:32:13;;;;;;;30.23;27.33;;;11.80;99.90;;;;;;5055576;28;20780;-83
2022/04/24 00:34:40;;;;;;;32.20;28.85;;;11.30;99.90;;;;;;5055383;28;20388;-83
2022/04/24 00:37:06;;;;;;;32.47;29.08;;;10.90;99.90;;;;;;5055787;28;20742;-82
2022/04/24 00:39:32;;;;;;;31.43;28.33;;;10.80;99.90;;;;;;5055556;28;20381;-83
2022/04/24 00:41:57;;;;;;;31.13;27.97;;;10.90;99.90;;;;;;5055081;28;20405;-83
2022/04/24 00:44:23;;;;;;;29.67;26.67;;;10.90;99.90;;;;;;5055247;28;20388;-83
2022/04/24 00:47:03;;;;;;;30.47;27.27;;;11.30;99.90;;;;;;5055210;28;20382;-83
2022/04/24 00:49:29;;;;;;;33.77;30.37;;;11.30;99.90;;;;;;5055092;28;20378;-83
2022/04/24 00:51:55;;;;;;;32.10;28.70;;;11.60;99.90;;;;;;5055070;28;20870;-83
2022/04/24 00:54:20;;;;;;;30.95;27.83;;;11.40;99.90;;;;;;5055122;28;20389;-83
2022/04/24 00:56:46;;;;;;;32.80;29.45;;;11.40;99.90;;;;;;5054521;28;20381;-83
2022/04/24 00:59:14;;;;;;;34.85;31.25;;;11.40;99.90;;;;;;5054688;28;20491;-83
2022/04/24 01:01:41;;;;;;;33.88;30.42;;;11.10;99.90;;;;;;5054933;28;20889;-83
2022/04/24 01:04:08;;;;;;;34.63;31.13;;;11.20;99.90;;;;;;5054465;28;20381;-83
2022/04/24 01:06:39;;;;;;;34.38;30.75;;;11.50;99.90;;;;;;5054834;28;20392;-83
2022/04/24 01:09:12;;;;;;;34.33;30.80;;;11.70;99.90;;;;;;5054650;28;20788;-83
2022/04/24 01:11:38;;;;;;;36.05;32.28;;;11.60;99.90;;;;;;5054605;28;20388;-83
2022/04/24 01:14:05;;;;;;;37.58;33.50;;;11.30;99.90;;;;;;5052611;28;20401;-83
2022/04/24 01:16:31;;;;;;;40.33;35.60;;;10.90;99.90;;;;;;5040786;28;20735;-82
2022/04/24 01:18:58;;;;;;;45.33;37.53;;;10.60;99.90;;;;;;5054670;28;20396;-82
2022/04/24 01:21:23;;;;;;;43.87;37.83;;;10.30;99.90;;;;;;5054556;28;20891;-82
2022/04/24 01:23:49;;;;;;;43.60;38.47;;;10.30;99.90;;;;;;5054370;28;20484;-82
2022/04/24 01:26:15;;;;;;;48.20;39.27;;;10.20;99.90;;;;;;5054691;28;20434;-82
2022/04/24 01:28:40;;;;;;;42.83;37.47;;;10.10;99.90;;;;;;5054503;28;20442;-82
2022/04/24 01:31:06;;;;;;;39.87;35.57;;;10.30;99.90;;;;;;5051100;28;20390;-83
2022/04/24 01:33:31;;;;;;;39.50;35.20;;;10.20;99.90;;;;;;5054531;28;20386;-83
2022/04/24 01:35:57;;;;;;;37.47;33.43;;;10.50;99.90;;;;;;5054388;28;20389;-81
2022/04/24 01:38:23;;;;;;;37.50;33.57;;;10.70;99.90;;;;;;5054116;28;20387;-82
2022/04/24 01:40:49;;;;;;;36.95;33.13;;;10.70;99.90;;;;;;5053926;28;20377;-82
2022/04/24 01:43:18;;;;;;;37.20;33.40;;;10.70;99.90;;;;;;5053923;28;20835;-82
2022/04/24 01:45:44;;;;;;;38.35;34.22;;;10.80;99.90;;;;;;5054095;28;20451;-82
2022/04/24 01:48:10;;;;;;;39.17;34.83;;;10.70;99.90;;;;;;5052794;28;20428;-82
2022/04/24 01:50:36;;;;;;;36.00;32.20;;;10.50;99.90;;;;;;5054172;28;20430;-82
2022/04/24 01:53:02;;;;;;;26.08;23.30;;;10.40;99.90;;;;;;5054073;28;20846;-82
2022/04/24 01:55:27;;;;;;;25.80;22.93;;;9.90;99.90;;;;;;5053842;28;20579;-82
2022/04/24 01:57:53;;;;;;;14.57;13.37;;;10.30;99.90;;;;;;5053994;28;20933;-81
2022/04/24 02:00:20;;;;;;;12.60;11.60;;;9.50;99.90;;;;;;5052482;28;20381;-81
2022/04/24 02:02:46;;;;;;;9.00;8.20;;;10.00;99.90;;;;;;5053730;28;20763;-82
2022/04/24 02:05:12;;;;;;;7.47;6.78;;;9.20;99.90;;;;;;5053600;28;20427;-82
2022/04/24 02:07:38;;;;;;;6.47;5.88;;;9.00;99.90;;;;;;5053684;28;20929;-82
2022/04/24 02:10:04;;;;;;;5.50;5.10;;;8.90;99.90;;;;;;5053816;28;20481;-82
2022/04/24 02:12:30;;;;;;;5.28;4.78;;;8.80;99.90;;;;;;5053437;28;20410;-82
2022/04/24 02:14:56;;;;;;;4.40;4.00;;;8.70;99.90;;;;;;5055348;28;20392;-82
2022/04/24 02:17:22;;;;;;;2.58;2.38;;;8.80;99.90;;;;;;5059195;28;20381;-82
2022/04/24 02:19:47;;;;;;;2.90;2.70;;;9.60;99.90;;;;;;5052116;28;20770;-82
2022/04/24 02:22:13;;;;;;;2.10;1.90;;;9.40;99.90;;;;;;5053158;28;20493;-82
2022/04/24 02:24:39;;;;;;;1.60;1.50;;;8.70;99.90;;;;;;5053481;28;20519;-82
2022/04/24 02:27:05;;;;;;;2.00;1.50;;;8.70;99.90;;;;;;5053020;28;20864;-82
2022/04/24 02:29:30;;;;;;;1.50;1.00;;;8.70;99.90;;;;;;5052935;28;20374;-82
2022/04/24 02:31:57;;;;;;;1.90;1.00;;;8.50;99.90;;;;;;5050723;28;20750;-82
2022/04/24 02:34:23;;;;;;;1.60;0.70;;;9.20;99.90;;;;;;5053548;28;20415;-82
2022/04/24 02:36:48;;;;;;;1.40;0.70;;;8.70;99.90;;;;;;5053450;28;20382;-83
2022/04/24 02:39:14;;;;;;;1.87;0.60;;;9.60;99.90;;;;;;5053305;28;20462;-83
2022/04/24 02:41:39;;;;;;;1.30;0.50;;;8.40;99.90;;;;;;5053021;28;20723;-83
2022/04/24 02:44:05;;;;;;;0.50;0.40;;;8.30;99.90;;;;;;5051104;28;20480;-83
2022/04/24 02:46:31;;;;;;;0.73;0.33;;;8.70;99.90;;;;;;5052037;28;20385;-83
2022/04/24 02:48:56;;;;;;;0.30;0.30;;;8.70;99.90;;;;;;5053275;28;20443;-83
2022/04/24 02:51:22;;;;;;;1.33;0.30;;;8.10;99.90;;;;;;5052705;28;20416;-83
2022/04/24 02:53:48;;;;;;;3.30;0.20;;;8.40;99.90;;;;;;5049032;28;20389;-83
2022/04/24 02:56:13;;;;;;;0.70;0.20;;;9.30;99.90;;;;;;5053060;28;20389;-83
2022/04/24 02:58:39;;;;;;;1.05;0.10;;;8.10;99.90;;;;;;5062470;28;20425;-83
2022/04/24 03:01:05;;;;;;;0.28;0.20;;;8.60;99.90;;;;;;5051080;28;20870;-82
2022/04/24 03:03:31;;;;;;;0.50;0.28;;;8.00;99.90;;;;;;5050650;28;20413;-83
2022/04/24 03:05:57;;;;;;;0.60;0.30;;;8.00;99.90;;;;;;5050723;28;20428;-82
2022/04/24 03:08:22;;;;;;;0.20;0.20;;;8.10;99.90;;;;;;5046864;28;20735;-83
2022/04/24 03:10:49;;;;;;;0.50;0.20;;;8.10;99.90;;;;;;5045866;28;20766;-83
2022/04/24 03:13:14;;;;;;;0.85;0.30;;;8.40;99.90;;;;;;5051470;28;20400;-83
2022/04/24 03:15:40;;;;;;;0.20;0.20;;;8.50;99.90;;;;;;5052389;28;20448;-83
2022/04/24 03:18:07;;;;;;;0.43;0.30;;;8.60;99.90;;;;;;5052562;28;20390;-83
2022/04/24 03:20:33;;;;;;;1.00;0.30;;;8.60;99.90;;;;;;5052619;28;20397;-83
2022/04/24 03:22:58;;;;;;;0.28;0.17;;;8.70;99.90;;;;;;5051166;28;20401;-82
2022/04/24 03:25:24;;;;;;;0.30;0.20;;;9.20;99.90;;;;;;5052382;28;20377;-83
2022/04/24 03:27:49;;;;;;;0.30;0.20;;;8.50;99.90;;;;;;5047835;28;20868;-83
2022/04/24 03:30:15;;;;;;;0.23;0.20;;;8.70;99.90;;;;;;5052438;28;20439;-83
2022/04/24 03:32:41;;;;;;;0.20;0.10;;;9.20;99.90;;;;;;5052448;28;20392;-83
2022/04/24 03:35:09;;;;;;;0.20;0.20;;;9.70;99.90;;;;;;5052284;28;20487;-83
2022/04/24 03:37:36;;;;;;;0.40;0.20;;;8.80;99.90;;;;;;5052631;28;20742;-83
2022/04/24 03:40:03;;;;;;;0.30;0.10;;;9.00;99.90;;;;;;5052328;28;20389;-83
2022/04/24 03:42:28;;;;;;;0.20;0.20;;;8.90;99.90;;;;;;5050261;28;20408;-83
2022/04/24 03:44:55;;;;;;;0.20;0.20;;;9.10;99.90;;;;;;5047934;28;20773;-83
2022/04/24 03:47:21;;;;;;;0.63;0.20;;;8.60;99.90;;;;;;5052145;28;20382;-82
2022/04/24 03:49:46;;;;;;;0.30;0.20;;;8.10;99.90;;;;;;5052400;28;20447;-82
2022/04/24 03:52:12;;;;;;;0.22;0.10;;;8.00;99.90;;;;;;5052273;28;20397;-82
2022/04/24 03:54:38;;;;;;;0.10;0.10;;;7.90;99.90;;;;;;5052144;28;20436;-83
2022/04/24 03:57:04;;;;;;;0.30;0.15;;;8.00;99.90;;;;;;5051742;28;20945;-83
2022/04/24 03:59:30;;;;;;;0.38;0.20;;;8.00;99.90;;;;;;5051833;28;20420;-83
2022/04/24 04:01:56;;;;;;;0.45;0.20;;;7.90;99.90;;;;;;5051972;28;20417;-82
2022/04/24 04:04:21;;;;;;;0.30;0.20;;;8.30;99.90;;;;;;5051973;28;20388;-82
2022/04/24 04:06:47;;;;;;;0.90;0.30;;;8.20;99.90;;;;;;5052331;28;20387;-83
2022/04/24 04:09:13;;;;;;;0.87;0.20;;;7.90;99.90;;;;;;5052059;28;20381;-83
2022/04/24 04:11:38;;;;;;;0.10;0.10;;;8.10;99.90;;;;;;5052214;28;20381;-82
2022/04/24 04:14:04;;;;;;;0.30;0.10;;;8.90;99.90;;;;;;5052145;28;20443;-83
2022/04/24 04:16:30;;;;;;;0.70;0.10;;;9.60;99.90;;;;;;5051932;28;20746;-82
2022/04/24 04:18:55;;;;;;;0.10;0.10;;;8.60;99.90;;;;;;5052059;28;20389;-82
2022/04/24 04:21:21;;;;;;;0.30;0.20;;;8.70;99.90;;;;;;5051507;28;20793;-82
2022/04/24 04:23:46;;;;;;;0.50;0.30;;;8.00;99.90;;;;;;5051382;28;20476;-83
2022/04/24 04:26:12;;;;;;;0.20;0.20;;;9.20;99.90;;;;;;5051743;28;20381;-83
2022/04/24 04:28:38;;;;;;;0.30;0.13;;;8.10;99.90;;;;;;5051120;28;20745;-83
2022/04/24 04:31:03;;;;;;;0.60;0.20;;;8.40;99.90;;;;;;5051832;28;20393;-82
2022/04/24 04:33:29;;;;;;;0.20;0.20;;;8.10;99.90;;;;;;5049866;28;20377;-82
2022/04/24 04:35:55;;;;;;;0.43;0.20;;;7.90;99.90;;;;;;5051551;28;20434;-82
2022/04/24 04:38:20;;;;;;;0.30;0.20;;;7.90;99.90;;;;;;5051681;28;20420;-82
2022/04/24 04:40:46;;;;;;;0.20;0.20;;;7.60;99.90;;;;;;5051792;28;20396;-82
2022/04/24 04:43:12;;;;;;;0.27;0.27;;;7.80;99.90;;;;;;5051482;28;20401;-82
2022/04/24 04:45:37;;;;;;;0.20;0.20;;;8.00;99.90;;;;;;5051076;28;20378;-82
2022/04/24 04:48:03;;;;;;;0.40;0.10;;;7.60;99.90;;;;;;5051647;28;20874;-81
2022/04/24 04:50:29;;;;;;;0.10;0.10;;;7.70;99.90;;;;;;5051359;28;20377;-81
2022/04/24 04:52:54;;;;;;;0.30;0.20;;;7.70;99.90;;;;;;5051644;28;20421;-84
2022/04/24 04:55:20;;;;;;;0.30;0.20;;;7.80;99.90;;;;;;5051436;28;20382;-81
2022/04/24 04:57:47;;;;;;;0.10;0.10;;;9.00;99.90;;;;;;5051571;28;20389;-81
2022/04/24 05:00:13;;;;;;;0.40;0.20;;;7.90;99.90;;;;;;5051565;28;20381;-82
2022/04/24 05:02:40;;;;;;;0.35;0.20;;;7.70;99.90;;;;;;5051708;28;20467;-82
2022/04/24 05:05:08;;;;;;;0.30;0.25;;;7.70;99.90;;;;;;5051470;28;20456;-82
2022/04/24 05:07:35;;;;;;;0.32;0.20;;;7.60;99.90;;;;;;5052959;28;20822;-83
2022/04/24 05:10:00;;;;;;;0.50;0.20;;;7.70;99.90;;;;;;5055067;28;20789;-82
2022/04/24 05:12:27;;;;;;;0.20;0.20;;;7.80;99.90;;;;;;5054832;28;20393;-83
2022/04/24 05:14:53;;;;;;;0.40;0.30;;;8.20;99.90;;;;;;5053689;28;20390;-83
2022/04/24 05:17:19;;;;;;;0.32;0.30;;;8.30;99.90;;;;;;5054509;28;20854;-82
2022/04/24 05:19:45;;;;;;;0.40;0.40;;;8.10;99.90;;;;;;5041728;28;20389;-82
2022/04/24 05:22:10;;;;;;;0.53;0.40;;;8.00;99.90;;;;;;5054853;28;20444;-82
2022/04/24 05:24:36;;;;;;;1.30;0.40;;;7.90;99.90;;;;;;5054710;28;20393;-83
2022/04/24 05:27:01;;;;;;;0.50;0.40;;;8.00;99.90;;;;;;5054896;28;20403;-82
2022/04/24 05:29:27;;;;;;;0.57;0.47;;;7.80;99.90;;;;;;5054668;28;20754;-81
2022/04/24 05:31:53;;;;;;;0.50;0.50;;;8.00;99.90;;;;;;5053353;28;20886;-81
2022/04/24 05:34:19;;;;;;;0.50;0.50;;;7.60;99.90;;;;;;5052914;28;20392;-82
2022/04/24 05:36:45;;;;;;;2.20;0.60;;;7.80;99.90;;;;;;5054829;28;20858;-82
2022/04/24 05:39:10;;;;;;;0.93;0.60;;;7.80;99.90;;;;;;5054593;28;20385;-80
2022/04/24 05:41:36;;;;;;;0.70;0.70;;;8.10;99.90;;;;;;5051418;28;20389;-80
2022/04/24 05:44:02;;;;;;;1.60;0.70;;;7.80;99.90;;;;;;5054258;28;20915;-80
2022/04/24 05:46:27;;;;;;;1.25;0.70;;;7.80;99.90;;;;;;5054386;28;20524;-80
2022/04/24 05:48:55;;;;;;;0.77;0.60;;;7.80;99.90;;;;;;5054430;28;20377;-81
2022/04/24 05:51:20;;;;;;;0.60;0.60;;;8.00;99.90;;;;;;5054313;28;20378;-80
2022/04/24 05:53:46;;;;;;;2.45;0.90;;;8.00;99.90;;;;;;5054071;28;20407;-80
2022/04/24 05:56:12;;;;;;;1.33;1.23;;;7.90;99.90;;;;;;5052586;28;20757;-80
2022/04/24 05:58:37;;;;;;;1.73;1.00;;;8.20;99.90;;;;;;5053897;28;20404;-80
2022/04/24 06:01:03;;;;;;;1.30;1.20;;;8.30;99.90;;;;;;5053750;28;20389;-81
2022/04/24 06:03:28;;;;;;;1.15;1.05;;;8.40;99.90;;;;;;5053866;28;20858;-81
2022/04/24 06:05:54;;;;;;;1.95;1.15;;;8.60;99.90;;;;;;5053786;28;20893;-81
2022/04/24 06:08:20;;;;;;;1.17;1.05;;;8.80;99.90;;;;;;5054145;28;20381;-80
2022/04/24 06:10:45;;;;;;;1.20;1.00;;;9.90;99.90;;;;;;5053842;28;20555;-81
2022/04/24 06:13:11;;;;;;;1.00;0.90;;;9.30;99.90;;;;;;5053726;28;20377;-80
2022/04/24 06:15:38;;;;;;;0.70;0.70;;;9.00;99.90;;;;;;5058919;28;20422;-81
2022/04/24 06:18:04;;;;;;;0.83;0.80;;;9.20;99.90;;;;;;5066146;28;20484;-80
2022/04/24 06:20:30;;;;;;;2.00;0.68;;;8.30;99.90;;;;;;5036067;28;20811;-81
2022/04/24 06:22:57;;;;;;;1.10;1.00;;;8.20;99.90;;;;;;5051621;28;20516;-80
2022/04/24 06:25:34;;;;;;;1.00;0.90;;;8.60;99.90;;;;;;5059321;28;20383;-80
2022/04/24 06:28:01;;;;;;;0.80;0.80;;;8.60;99.90;;;;;;5067483;28;20475;-80
2022/04/24 06:30:28;;;;;;;1.00;1.00;;;9.00;99.90;;;;;;5051580;28;20381;-80
2022/04/24 06:32:55;;;;;;;1.00;1.00;;;8.50;99.90;;;;;;5053468;28;20767;-79
2022/04/24 06:35:21;;;;;;;0.90;0.90;;;8.30;99.90;;;;;;5053468;28;20784;-79
2022/04/24 06:37:49;;;;;;;0.80;0.80;;;8.30;99.90;;;;;;5053486;28;20474;-80
2022/04/24 06:40:17;;;;;;;1.15;0.98;;;8.20;99.90;;;;;;5049995;28;20424;-81
2022/04/24 06:42:56;;;;;;;0.90;0.90;;;8.20;99.90;;;;;;5062601;28;20404;-81
2022/04/24 06:45:36;;;;;;;1.10;0.95;;;8.30;99.90;;;;;;5053299;28;20409;-81
2022/04/24 06:48:10;;;;;;;0.90;0.90;;;8.60;99.90;;;;;;5064471;28;20482;-82
2022/04/24 06:50:37;;;;;;;1.00;1.00;;;8.60;99.90;;;;;;5062587;28;20381;-82
2022/04/24 06:53:15;;;;;;;1.25;1.00;;;9.00;99.90;;;;;;5069097;28;20933;-81
2022/04/24 06:55:42;;;;;;;0.95;0.90;;;8.30;99.90;;;;;;5052160;28;20385;-81
2022/04/24 06:58:13;;;;;;;1.05;0.80;;;8.20;99.90;;;;;;5057051;28;20755;-81
2022/04/24 07:00:41;;;;;;;1.13;1.08;;;8.10;99.90;;;;;;5049390;28;20542;-81
2022/04/24 07:03:18;;;;;;;0.93;0.93;;;8.00;99.90;;;;;;5047078;28;20448;-82
2022/04/24 07:05:44;;;;;;;1.17;1.17;;;8.10;99.90;;;;;;5050400;28;20397;-82
2022/04/24 07:08:10;;;;;;;1.20;1.10;;;8.70;99.90;;;;;;5059663;28;20965;-80
2022/04/24 07:10:36;;;;;;;1.10;1.00;;;8.10;99.90;;;;;;5059210;28;20389;-79
2022/04/24 07:13:03;;;;;;;1.10;1.10;;;8.10;99.90;;;;;;5061827;28;20538;-80
2022/04/24 07:15:31;;;;;;;1.30;1.20;;;8.30;99.90;;;;;;5067698;28;20380;-81
2022/04/24 07:17:57;;;;;;;1.20;1.20;;;8.30;99.90;;;;;;5059822;28;20385;-87
2022/04/24 07:20:23;;;;;;;1.10;1.10;;;8.90;99.90;;;;;;5064927;28;20414;-82
2022/04/24 07:22:51;;;;;;;1.40;1.10;;;8.40;99.90;;;;;;5063994;28;20415;-84
2022/04/24 07:25:18;;;;;;;1.88;1.20;;;9.00;99.90;;;;;;5060742;28;20392;-82
2022/04/24 07:27:44;;;;;;;1.20;1.20;;;8.30;99.90;;;;;;5051892;28;20382;-84
2022/04/24 07:30:15;;;;;;;1.38;1.27;;;8.20;99.90;;;;;;5052188;28;20913;-81
2022/04/24 07:32:46;;;;;;;1.40;1.30;;;8.20;99.90;;;;;;5052754;28;20739;-82
2022/04/24 07:35:17;;;;;;;1.40;1.30;;;8.20;99.90;;;;;;5052373;28;20417;-81
2022/04/24 07:37:43;;;;;;;2.28;1.50;;;8.80;99.90;;;;;;5052808;28;20426;-80
2022/04/24 07:40:11;;;;;;;1.92;1.65;;;8.40;99.90;;;;;;5052336;28;20385;-80
2022/04/24 07:42:48;;;;;;;2.00;1.90;;;8.20;99.90;;;;;;5052079;28;20488;-80
2022/04/24 07:45:18;;;;;;;2.00;1.90;;;8.30;99.90;;;;;;5052403;28;20873;-79
2022/04/24 07:47:46;;;;;;;2.15;1.95;;;8.30;99.90;;;;;;5052193;28;20862;-80
2022/04/24 07:50:16;;;;;;;1.80;1.70;;;8.30;99.90;;;;;;5052159;28;20746;-81
2022/04/24 07:52:42;;;;;;;1.70;1.60;;;8.40;99.90;;;;;;5058379;28;20383;-81
2022/04/24 07:55:15;;;;;;;1.38;1.30;;;8.50;99.90;;;;;;5055948;28;20384;-81
2022/04/24 07:57:41;;;;;;;1.45;1.35;;;8.50;99.90;;;;;;5043136;28;20928;-78
2022/04/24 08:00:10;;;;;;;1.60;1.50;;;8.70;99.90;;;;;;5056400;28;20420;-83
2022/04/24 08:03:15;;;;;;;1.58;1.48;;;8.50;99.90;;;;;;5060569;28;20739;-86
2022/04/24 08:05:45;;;;;;;1.53;1.37;;;8.50;99.90;;;;;;4970960;28;20452;-80
2022/04/24 08:08:14;;;;;;;1.30;1.13;;;8.80;99.90;;;;;;4968649;28;20398;-81
2022/04/24 08:10:42;;;;;;;1.40;1.30;;;8.70;99.90;;;;;;4970532;28;20494;-81
2022/04/24 08:13:09;;;;;;;0.90;0.90;;;8.80;99.90;;;;;;4965716;28;20408;-79
2022/04/24 08:15:35;;;;;;;0.98;0.98;;;8.80;99.90;;;;;;4967772;28;20450;-82
2022/04/24 08:18:02;;;;;;;1.17;1.08;;;8.80;99.90;;;;;;4968083;28;20416;-81
2022/04/24 08:20:28;;;;;;;0.80;0.80;;;8.80;99.90;;;;;;4963539;28;20439;-81
2022/04/24 08:22:59;;;;;;;0.85;0.85;;;9.00;99.90;;;;;;4952087;28;20474;-82
2022/04/24 08:25:26;;;;;;;1.20;1.10;;;8.70;99.90;;;;;;4968869;28;20467;-82
2022/04/24 08:27:53;;;;;;;0.80;0.80;;;8.70;99.90;;;;;;4968126;28;20425;-84
2022/04/24 08:30:21;;;;;;;0.90;0.90;;;9.30;99.90;;;;;;4967882;28;20394;-84
2022/04/24 08:32:47;;;;;;;1.00;0.95;;;8.70;99.90;;;;;;4964365;28;20878;-84
2022/04/24 08:35:15;;;;;;;0.90;0.90;;;8.70;99.90;;;;;;4970671;28;20395;-84
2022/04/24 08:37:42;;;;;;;1.40;0.90;;;8.80;99.90;;;;;;5050671;28;20439;-83
2022/04/24 08:40:09;;;;;;;1.10;1.00;;;9.10;99.90;;;;;;5050273;28;20912;-81
2022/04/24 08:42:35;;;;;;;0.80;0.80;;;8.90;99.90;;;;;;5059400;28;20952;-84
2022/04/24 08:45:03;;;;;;;0.80;0.80;;;8.90;99.90;;;;;;5057709;28;20389;-79
2022/04/24 08:47:28;;;;;;;0.95;0.90;;;9.40;99.90;;;;;;5057738;28;20859;-80
2022/04/24 08:49:56;;;;;;;1.55;1.45;;;9.00;99.90;;;;;;5058395;28;20488;-81
2022/04/24 08:52:23;;;;;;;1.35;1.15;;;9.00;99.90;;;;;;5054892;28;20514;-80
2022/04/24 08:54:50;;;;;;;1.20;1.10;;;9.00;99.90;;;;;;5063935;28;20388;-80
2022/04/24 08:57:17;;;;;;;0.88;0.88;;;9.10;99.90;;;;;;5055085;28;20404;-81
2022/04/24 08:59:43;;;;;;;1.10;0.80;;;9.10;99.90;;;;;;5054353;28;20389;-81
2022/04/24 09:02:09;;;;;;;1.00;0.90;;;9.10;99.90;;;;;;5065724;28;20409;-79
2022/04/24 09:04:39;;;;;;;0.82;0.77;;;9.30;99.90;;;;;;5055381;28;20393;-80
2022/04/24 09:07:07;;;;;;;0.90;0.80;;;9.30;99.90;;;;;;5061991;28;20860;-81
2022/04/24 09:09:44;;;;;;;0.98;0.60;;;9.70;99.90;;;;;;5054708;28;20470;-81
2022/04/24 09:12:39;;;;;;;0.80;0.80;;;10.20;99.90;;;;;;5056081;28;20490;-81
2022/04/24 09:15:06;;;;;;;0.80;0.80;;;9.80;99.90;;;;;;5047328;28;20597;-81
2022/04/24 09:17:33;;;;;;;1.00;0.80;;;9.70;99.90;;;;;;5048134;28;20385;-81
2022/04/24 09:20:00;;;;;;;1.80;1.00;;;9.70;99.90;;;;;;5054999;28;20895;-81
2022/04/24 09:22:25;;;;;;;1.30;0.90;;;9.70;99.90;;;;;;5070739;28;20407;-81
2022/04/24 09:24:55;;;;;;;0.80;0.80;;;9.70;99.90;;;;;;5058309;28;20918;-81
2022/04/24 09:27:26;;;;;;;0.98;0.88;;;9.80;99.90;;;;;;5070509;28;20407;-81
2022/04/24 09:30:05;;;;;;;0.82;0.70;;;9.80;99.90;;;;;;5056294;28;20412;-80
2022/04/24 09:32:36;;;;;;;0.88;0.80;;;9.80;99.90;;;;;;5054712;28;20477;-82
2022/04/24 09:35:02;;;;;;;1.08;0.70;;;9.80;99.90;;;;;;5061931;28;20385;-81
2022/04/24 09:37:38;;;;;;;1.00;0.70;;;9.90;99.90;;;;;;5058110;28;20387;-81
2022/04/24 09:40:04;;;;;;;2.88;1.00;;;10.10;99.90;;;;;;5053429;28;20401;-80
2022/04/24 09:42:30;;;;;;;0.73;0.70;;;10.00;99.90;;;;;;5054115;28;20409;-81
2022/04/24 09:44:55;;;;;;;1.13;0.70;;;9.90;99.90;;;;;;5054282;28;20405;-80
2022/04/24 09:47:26;;;;;;;1.07;0.70;;;9.80;99.90;;;;;;5054157;28;20436;-81
2022/04/24 09:49:52;;;;;;;1.20;1.10;;;9.80;99.90;;;;;;5055414;28;20409;-82
2022/04/24 09:52:19;;;;;;;1.13;0.90;;;9.90;99.90;;;;;;5057231;28;20384;-82
2022/04/24 09:54:47;;;;;;;0.80;0.80;;;10.00;99.90;;;;;;5072912;28;20388;-82
2022/04/24 09:57:14;;;;;;;0.70;0.70;;;10.00;99.90;;;;;;5058388;28;20424;-83
2022/04/24 09:59:43;;;;;;;2.38;0.90;;;10.10;99.90;;;;;;5054250;28;20393;-82
2022/04/24 10:02:10;;;;;;;1.17;1.08;;;10.00;99.90;;;;;;5053791;28;20417;-84
2022/04/24 10:04:38;;;;;;;1.92;1.05;;;10.50;99.90;;;;;;5054119;28;20416;-82
2022/04/24 10:07:06;;;;;;;1.83;0.83;;;10.20;99.90;;;;;;5053869;28;20381;-82
2022/04/24 10:09:37;;;;;;;1.25;0.50;;;10.30;99.90;;;;;;5053891;28;20382;-82
2022/04/24 10:12:08;;;;;;;1.05;0.90;;;10.30;99.90;;;;;;5053659;28;20382;-86
2022/04/24 10:14:40;;;;;;;1.00;0.85;;;10.40;99.90;;;;;;5052171;28;20392;-81
2022/04/24 10:17:33;;;;;;;1.20;0.95;;;10.90;99.90;;;;;;5048871;28;20397;-86
2022/04/24 10:20:21;;;;;;;0.90;0.90;;;10.50;99.90;;;;;;5004944;28;20408;-82
2022/04/24 10:22:49;;;;;;;1.67;1.00;;;10.60;99.90;;;;;;5052197;28;20409;-83
2022/04/24 10:25:15;;;;;;;1.92;1.30;;;10.50;99.90;;;;;;5062226;28;20387;-81
2022/04/24 10:27:47;;;;;;;1.80;1.15;;;10.30;99.90;;;;;;5047574;28;20427;-80
2022/04/24 10:30:23;;;;;;;1.23;1.00;;;10.20;99.90;;;;;;5046536;28;20383;-79
2022/04/24 10:32:52;;;;;;;2.50;1.30;;;10.20;99.90;;;;;;5064118;28;20391;-79
2022/04/24 10:35:19;;;;;;;3.90;3.50;;;10.80;99.90;;;;;;5040968;28;20481;-79
2022/04/24 10:37:47;;;;;;;2.05;1.85;;;10.40;99.90;;;;;;5047597;28;20392;-79
2022/04/24 10:40:16;;;;;;;1.10;1.00;;;10.80;99.90;;;;;;5042819;28;20397;-79
2022/04/24 10:42:43;;;;;;;1.05;0.93;;;10.40;99.90;;;;;;5050636;28;20517;-79
2022/04/24 10:45:16;;;;;;;1.40;1.10;;;10.70;99.90;;;;;;5047877;28;20397;-79
2022/04/24 10:47:45;;;;;;;0.93;0.93;;;10.80;99.90;;;;;;5052350;28;20393;-79
2022/04/24 10:50:11;;;;;;;1.13;1.02;;;10.60;99.90;;;;;;5046674;28;20389;-79
2022/04/24 10:52:44;;;;;;;1.50;1.40;;;10.60;99.90;;;;;;5045836;28;20399;-79
2022/04/24 10:55:13;;;;;;;1.00;0.90;;;10.70;99.90;;;;;;5043536;28;20395;-79
2022/04/24 10:57:43;;;;;;;1.13;1.02;;;10.60;99.90;;;;;;5048520;28;20403;-79
2022/04/24 11:00:19;;;;;;;3.40;3.20;;;10.70;99.90;;;;;;5051196;28;20400;-79
2022/04/24 11:02:46;;;;;;;1.75;1.38;;;10.70;99.90;;;;;;5041027;28;20408;-79
2022/04/24 11:05:18;;;;;;;1.48;1.27;;;10.80;99.90;;;;;;5043911;28;20426;-79
2022/04/24 11:07:44;;;;;;;1.45;0.80;;;10.60;99.90;;;;;;5040644;28;20432;-79
2022/04/24 11:10:11;;;;;;;0.80;0.80;;;10.50;99.90;;;;;;5051540;28;20393;-79
2022/04/24 11:12:39;;;;;;;0.73;0.73;;;10.60;99.90;;;;;;5044087;28;20403;-79
2022/04/24 11:15:10;;;;;;;1.33;0.80;;;10.70;99.90;;;;;;5044360;28;20397;-79
2022/04/24 11:17:36;;;;;;;1.20;1.10;;;10.80;99.90;;;;;;5043515;28;20892;-82
2022/04/24 11:20:13;;;;;;;1.20;1.10;;;10.90;99.90;;;;;;5051460;28;20393;-82
2022/04/24 11:22:50;;;;;;;0.90;0.90;;;10.90;99.90;;;;;;5050878;28;20419;-82
2022/04/24 11:25:22;;;;;;;1.50;1.15;;;10.90;99.90;;;;;;5046110;28;20429;-84
2022/04/24 11:27:56;;;;;;;1.77;1.35;;;10.90;99.90;;;;;;5034037;28;20474;-84
2022/04/24 11:30:26;;;;;;;1.48;1.38;;;11.00;99.90;;;;;;5060398;28;20774;-86
2022/04/24 11:32:59;;;;;;;1.65;1.20;;;11.00;99.90;;;;;;5057255;28;20480;-84
2022/04/24 11:35:27;;;;;;;2.63;1.52;;;10.90;99.90;;;;;;5050078;28;20404;-86
2022/04/24 11:37:54;;;;;;;1.00;1.00;;;10.90;99.90;;;;;;5051909;28;20408;-84
2022/04/24 11:40:24;;;;;;;1.77;1.67;;;10.90;99.90;;;;;;5048263;28;20397;-88
2022/04/24 11:42:49;;;;;;;1.13;0.90;;;10.90;99.90;;;;;;5044555;28;20405;-86
2022/04/24 11:50:52;;;;;;;1.30;1.20;;;10.60;99.90;;;;;;5037227;28;20385;-88
2022/04/24 11:53:21;;;;;;;1.63;1.10;;;10.50;99.90;;;;;;5045902;28;20397;-89
2022/04/24 11:56:02;;;;;;;1.45;1.00;;;10.80;99.90;;;;;;5039886;28;20401;-89
2022/04/24 11:58:38;;;;;;;1.10;1.10;;;11.30;99.90;;;;;;5057153;28;20442;-85
2022/04/24 12:01:07;;;;;;;1.35;1.10;;;10.60;99.90;;;;;;5066131;28;20395;-91
2022/04/24 12:03:35;;;;;;;1.60;1.00;;;10.70;99.90;;;;;;5056457;28;20403;-91
2022/04/24 12:06:07;;;;;;;1.10;1.00;;;10.70;99.90;;;;;;5042147;28;20393;-89
2022/04/24 12:08:43;;;;;;;1.70;1.25;;;10.70;99.90;;;;;;5042102;28;20481;-87
2022/04/24 12:11:09;;;;;;;1.33;1.20;;;10.60;99.90;;;;;;5038147;28;20389;-90
2022/04/24 12:13:35;;;;;;;1.20;1.20;;;11.30;99.90;;;;;;5048485;28;20905;-90
2022/04/24 12:16:01;;;;;;;2.00;1.45;;;11.40;99.90;;;;;;5049179;28;20401;-84
2022/04/24 12:18:28;;;;;;;3.92;3.50;;;10.90;99.90;;;;;;5056678;28;20453;-83
2022/04/24 12:20:54;;;;;;;2.83;2.63;;;10.70;99.90;;;;;;5055881;28;20480;-84
2022/04/24 12:23:22;;;;;;;4.15;3.22;;;10.70;99.90;;;;;;5050361;28;20417;-86
2022/04/24 12:25:58;;;;;;;1.60;1.30;;;10.80;99.90;;;;;;5048448;28;20398;-88
2022/04/24 12:28:37;;;;;;;1.17;1.10;;;10.80;99.90;;;;;;5040637;28;20383;-86
2022/04/24 12:31:04;;;;;;;1.20;0.90;;;10.80;99.90;;;;;;5049907;28;20400;-85
2022/04/24 12:33:31;;;;;;;1.60;1.00;;;10.90;99.90;;;;;;5047384;28;20398;-87
2022/04/24 12:36:13;;;;;;;1.20;1.10;;;11.60;99.90;;;;;;5049687;28;20852;-84
2022/04/24 12:38:38;;;;;;;1.17;1.08;;;10.60;99.90;;;;;;5047679;28;20389;-85
2022/04/24 12:41:10;;;;;;;1.30;1.20;;;10.50;99.90;;;;;;5049358;28;20405;-83
2022/04/24 12:43:36;;;;;;;1.40;1.30;;;10.50;99.90;;;;;;5053773;28;20480;-85
2022/04/24 12:46:02;;;;;;;1.33;1.23;;;10.50;99.90;;;;;;5053713;28;20427;-86
2022/04/24 12:48:29;;;;;;;2.10;1.75;;;10.40;99.90;;;;;;5060559;28;20491;-85
2022/04/24 12:50:54;;;;;;;1.92;1.77;;;10.30;99.90;;;;;;5065084;28;20744;-84
2022/04/24 12:53:22;;;;;;;3.03;2.50;;;10.60;99.90;;;;;;5059889;28;20401;-87
2022/04/24 12:55:50;;;;;;;4.43;4.03;;;10.40;99.90;;;;;;5044953;28;20914;-86
2022/04/24 12:58:16;;;;;;;2.20;1.75;;;10.50;99.90;;;;;;5053096;28;20429;-86